Terminal Aerodrome Forecast
Issued by NWS

Home | Current Version | Previous Version | Text Only | Print | Product List | Glossary On
Versions: 1 2 3 4 5 6 7 8 9 10 11 12 13 14 15 16 17 18 19 20 21 22 23 24 25
298
FTUS41 KOKX 121433 AAB
TAFGON
TAF AMD
KGON 121433Z 1215/1312 23008KT P6SM SCT150 BKN250
     FM130000 25006KT P6SM SCT030 BKN050 PROB30 1303/1306 2SM -SN
      BKN015
     FM130600 30006KT P6SM SCT020 BKN070 PROB30 1310/1312 2SM -SHSN
      BKN015=

USA.gov is the U.S. government's official web portal to all federal, state and local government web resources and services.